Time;durP1;ratioP1;P1;durP2;ratioP2;P2;SDS_P1;SDS_P2;PMS_P1;PMS_P2;Temp;Humidity;BMP_temperature;BMP_pressure;BME280_temperature;BME280_humidity;BME280_pressure;Samples;Min_cycle;Max_cycle;Signal;HPM_P1;HPM_P2
2023/12/28 00:01:22;;;;;;;1.40;0.63;;;6.70;93.40;;;;;;4995382;28;20164;-72
2023/12/28 00:03:48;;;;;;;0.70;0.60;;;6.80;92.70;;;;;;4995145;28;20074;-71
2023/12/28 00:06:14;;;;;;;0.77;0.77;;;6.80;92.80;;;;;;4994424;28;20031;-72
2023/12/28 00:08:40;;;;;;;1.05;0.73;;;6.80;92.90;;;;;;4995610;28;20358;-73
2023/12/28 00:11:06;;;;;;;1.30;0.80;;;6.80;93.40;;;;;;4994389;28;20450;-73
2023/12/28 00:13:31;;;;;;;1.95;0.88;;;6.70;93.50;;;;;;4990689;28;20022;-71
2023/12/28 00:15:57;;;;;;;1.13;0.90;;;6.80;93.40;;;;;;4996652;28;20080;-72
2023/12/28 00:18:22;;;;;;;1.35;0.80;;;6.80;92.80;;;;;;4976057;28;20124;-73
2023/12/28 00:20:47;;;;;;;1.45;0.70;;;6.80;93.40;;;;;;4982189;28;20034;-72
2023/12/28 00:23:13;;;;;;;1.30;0.68;;;6.90;93.00;;;;;;5001781;28;20112;-72
2023/12/28 00:25:38;;;;;;;1.40;0.80;;;6.80;93.40;;;;;;4997935;28;20038;-72
2023/12/28 00:28:04;;;;;;;1.83;0.85;;;6.80;93.80;;;;;;5000277;28;20041;-71
2023/12/28 00:30:30;;;;;;;1.77;1.02;;;6.70;94.50;;;;;;4997024;28;20038;-73
2023/12/28 00:32:55;;;;;;;1.58;1.00;;;6.70;94.70;;;;;;4997798;28;20143;-72
2023/12/28 00:35:21;;;;;;;1.45;0.70;;;6.60;95.20;;;;;;4997043;28;20041;-72
2023/12/28 00:37:46;;;;;;;0.88;0.70;;;6.60;95.40;;;;;;4997094;28;20045;-72
2023/12/28 00:40:12;;;;;;;0.98;0.82;;;6.70;95.80;;;;;;4999087;28;20101;-73
2023/12/28 00:42:40;;;;;;;1.15;0.75;;;6.80;95.70;;;;;;4995347;28;20037;-72
2023/12/28 00:45:06;;;;;;;1.75;1.00;;;6.70;96.20;;;;;;4991720;28;20538;-72
2023/12/28 00:47:32;;;;;;;1.35;0.95;;;6.60;96.60;;;;;;4998387;28;20034;-73
2023/12/28 00:49:57;;;;;;;1.60;0.80;;;6.60;96.70;;;;;;4977954;28;20037;-72
2023/12/28 00:52:23;;;;;;;1.55;0.88;;;6.80;96.40;;;;;;4997975;28;20511;-72
2023/12/28 00:54:48;;;;;;;1.77;0.98;;;6.70;96.60;;;;;;4997401;28;20037;-72
2023/12/28 00:57:14;;;;;;;1.75;0.68;;;6.70;96.80;;;;;;4997445;28;20513;-72
2023/12/28 00:59:39;;;;;;;1.35;0.70;;;6.70;96.80;;;;;;4991697;28;20046;-73
2023/12/28 01:02:05;;;;;;;1.05;0.60;;;6.90;96.50;;;;;;4991031;28;20129;-72
2023/12/28 01:04:30;;;;;;;1.00;0.80;;;6.90;96.60;;;;;;4979536;28;20396;-72
2023/12/28 01:06:56;;;;;;;1.50;0.90;;;6.90;96.60;;;;;;4996143;28;20489;-72
2023/12/28 01:09:21;;;;;;;1.15;0.82;;;7.00;96.50;;;;;;4998738;28;20092;-71
2023/12/28 01:11:46;;;;;;;1.10;0.80;;;7.10;96.40;;;;;;5003267;28;20389;-72
2023/12/28 01:14:12;;;;;;;1.00;0.68;;;7.10;96.30;;;;;;4995673;28;20045;-72
2023/12/28 01:16:39;;;;;;;1.25;0.90;;;7.10;96.20;;;;;;4998877;28;20050;-72
2023/12/28 01:19:05;;;;;;;1.20;0.65;;;7.10;96.20;;;;;;5005233;28;20030;-72
2023/12/28 01:21:30;;;;;;;1.85;0.95;;;7.20;96.30;;;;;;5001165;28;20053;-72
2023/12/28 01:23:56;;;;;;;2.70;1.13;;;7.10;96.40;;;;;;4999458;28;20137;-71
2023/12/28 01:26:21;;;;;;;0.98;0.80;;;7.20;96.30;;;;;;5002792;28;20035;-72
2023/12/28 01:28:47;;;;;;;2.95;0.85;;;7.10;96.50;;;;;;4993390;28;20029;-72
2023/12/28 01:31:12;;;;;;;1.55;0.93;;;7.20;96.00;;;;;;4995353;28;20030;-72
2023/12/28 01:33:38;;;;;;;0.82;0.70;;;7.20;96.10;;;;;;4995454;28;20052;-72
2023/12/28 01:36:17;;;;;;;1.80;1.23;;;7.20;96.00;;;;;;5001537;28;20164;-72
2023/12/28 01:38:43;;;;;;;5.30;1.23;;;7.30;95.80;;;;;;4996166;28;20394;-73
2023/12/28 01:41:09;;;;;;;1.75;1.02;;;7.30;96.00;;;;;;4999864;28;20130;-72
2023/12/28 01:43:34;;;;;;;1.00;0.70;;;7.20;96.10;;;;;;4999785;28;20360;-72
2023/12/28 01:46:00;;;;;;;0.93;0.70;;;7.40;95.50;;;;;;5001196;28;20069;-73
2023/12/28 01:48:26;;;;;;;1.67;1.00;;;7.40;95.30;;;;;;5004367;28;20401;-72
2023/12/28 01:50:52;;;;;;;1.27;0.90;;;7.40;95.40;;;;;;5004510;28;20034;-72
2023/12/28 01:53:18;;;;;;;1.40;0.88;;;7.50;95.10;;;;;;5004535;28;20101;-72
2023/12/28 01:55:44;;;;;;;2.17;0.63;;;7.60;95.00;;;;;;5000725;28;20073;-72
2023/12/28 01:58:10;;;;;;;1.40;0.80;;;7.50;95.40;;;;;;4997781;28;20069;-72
2023/12/28 02:00:38;;;;;;;1.80;0.98;;;7.40;95.40;;;;;;4999830;28;20085;-72
2023/12/28 02:03:05;;;;;;;1.33;1.02;;;7.50;95.40;;;;;;4994113;28;20030;-72
2023/12/28 02:05:30;;;;;;;1.80;0.82;;;7.50;95.20;;;;;;4998203;28;20041;-71
2023/12/28 02:07:56;;;;;;;1.40;0.90;;;7.50;95.20;;;;;;4999594;28;20066;-72
2023/12/28 02:10:21;;;;;;;2.28;0.63;;;7.50;95.20;;;;;;4997393;28;20034;-72
2023/12/28 02:12:49;;;;;;;1.80;0.82;;;7.60;95.20;;;;;;4998024;28;20470;-71
2023/12/28 02:15:15;;;;;;;1.30;0.80;;;7.60;95.20;;;;;;4999359;28;20046;-72
2023/12/28 02:18:00;;;;;;;1.10;0.70;;;7.60;95.00;;;;;;5002952;28;20252;-71
2023/12/28 02:20:29;;;;;;;1.67;1.02;;;7.60;95.10;;;;;;4996031;28;20153;-72
2023/12/28 02:22:55;;;;;;;2.40;0.95;;;7.60;95.10;;;;;;5002948;28;20050;-71
2023/12/28 02:25:20;;;;;;;1.05;0.70;;;7.70;94.80;;;;;;5005140;28;20027;-71
2023/12/28 02:27:48;;;;;;;1.75;1.00;;;7.70;94.60;;;;;;4999483;28;20138;-72
2023/12/28 02:30:16;;;;;;;2.22;0.90;;;7.60;95.00;;;;;;4999892;28;20077;-72
2023/12/28 02:33:00;;;;;;;1.88;1.00;;;7.60;95.20;;;;;;4999750;28;20030;-71
2023/12/28 02:35:46;;;;;;;2.10;1.23;;;7.60;95.10;;;;;;4999927;28;20042;-73
2023/12/28 02:38:14;;;;;;;1.30;0.82;;;7.50;95.40;;;;;;5003858;28;20072;-72
2023/12/28 02:40:43;;;;;;;1.05;0.70;;;7.50;95.30;;;;;;5001887;28;20189;-74
2023/12/28 02:43:10;;;;;;;2.47;1.17;;;7.50;95.30;;;;;;4998979;28;20053;-72
2023/12/28 02:45:36;;;;;;;1.98;1.00;;;7.50;95.30;;;;;;4993541;28;20248;-72
2023/12/28 02:48:02;;;;;;;2.15;1.10;;;7.50;95.50;;;;;;5001808;28;20046;-72
2023/12/28 02:50:30;;;;;;;1.55;0.90;;;7.50;95.40;;;;;;5001891;28;20025;-72
2023/12/28 02:52:56;;;;;;;3.28;1.35;;;7.50;95.50;;;;;;5003302;28;20103;-72
2023/12/28 02:55:21;;;;;;;2.88;1.00;;;7.50;95.40;;;;;;5000471;28;20037;-72
2023/12/28 02:57:47;;;;;;;1.90;1.10;;;7.50;95.40;;;;;;5001749;28;20034;-72
2023/12/28 03:00:13;;;;;;;2.10;1.10;;;7.40;95.70;;;;;;4995549;28;20089;-72
2023/12/28 03:02:38;;;;;;;0.95;0.73;;;7.40;95.60;;;;;;4998858;28;20064;-72
2023/12/28 03:05:05;;;;;;;2.00;0.90;;;7.50;95.70;;;;;;5001805;28;20041;-72
2023/12/28 03:07:32;;;;;;;1.88;1.13;;;7.40;95.80;;;;;;4992720;28;20485;-73
2023/12/28 03:09:57;;;;;;;1.73;1.02;;;7.50;95.70;;;;;;4998725;28;20377;-72
2023/12/28 03:12:23;;;;;;;3.17;1.20;;;7.40;95.70;;;;;;4991777;28;20044;-73
2023/12/28 03:14:48;;;;;;;0.90;0.80;;;7.50;95.70;;;;;;4996179;28;20056;-72
2023/12/28 03:17:14;;;;;;;1.80;1.00;;;7.50;95.50;;;;;;4998021;28;20037;-72
2023/12/28 03:19:39;;;;;;;2.15;1.15;;;7.40;95.70;;;;;;4983553;28;20153;-72
2023/12/28 03:22:05;;;;;;;3.13;1.10;;;7.50;95.70;;;;;;4995998;28;20447;-73
2023/12/28 03:24:30;;;;;;;3.08;1.35;;;7.50;95.60;;;;;;5002012;28;20061;-73
2023/12/28 03:26:56;;;;;;;2.03;1.00;;;7.40;95.70;;;;;;4994879;28;20034;-72
2023/12/28 03:29:21;;;;;;;0.90;0.65;;;7.40;95.80;;;;;;4997215;28;20069;-72
2023/12/28 03:31:47;;;;;;;1.10;0.82;;;7.50;95.50;;;;;;4995179;28;20527;-72
2023/12/28 03:34:12;;;;;;;1.45;0.90;;;7.30;95.70;;;;;;4995467;28;20145;-72
2023/12/28 03:36:39;;;;;;;2.47;1.23;;;7.30;95.90;;;;;;4993073;28;20046;-72
2023/12/28 03:39:05;;;;;;;2.28;1.10;;;7.30;96.10;;;;;;4996916;28;20041;-74
2023/12/28 03:41:31;;;;;;;3.55;1.40;;;7.20;96.40;;;;;;4995102;28;20068;-72
2023/12/28 03:43:56;;;;;;;4.32;1.13;;;7.30;96.00;;;;;;5000629;28;20041;-73
2023/12/28 03:46:22;;;;;;;2.83;1.40;;;7.10;96.10;;;;;;4995649;28;20129;-73
2023/12/28 03:48:47;;;;;;;4.03;1.45;;;7.10;96.40;;;;;;5002719;28;20136;-73
2023/12/28 03:51:16;;;;;;;3.38;1.48;;;7.10;96.80;;;;;;5000380;28;20132;-72
2023/12/28 03:53:42;;;;;;;1.90;1.13;;;7.10;96.70;;;;;;5001033;28;20511;-72
2023/12/28 03:56:17;;;;;;;1.95;0.98;;;7.10;96.70;;;;;;5000639;28;20406;-72
2023/12/28 03:58:42;;;;;;;1.65;1.05;;;7.00;97.00;;;;;;4995685;28;20030;-72
2023/12/28 04:01:09;;;;;;;2.38;1.00;;;7.00;96.80;;;;;;4995866;28;20408;-72
2023/12/28 04:03:34;;;;;;;2.20;0.88;;;6.90;97.00;;;;;;4997804;28;20122;-72
2023/12/28 04:06:00;;;;;;;1.85;1.02;;;7.00;97.10;;;;;;4997225;28;20601;-72
2023/12/28 04:08:25;;;;;;;1.40;0.90;;;7.00;97.00;;;;;;4997931;28;20110;-73
2023/12/28 04:10:51;;;;;;;2.38;1.30;;;7.00;96.90;;;;;;4999272;28;20042;-72
2023/12/28 04:13:16;;;;;;;2.92;1.05;;;7.00;97.20;;;;;;5000396;28;20129;-72
2023/12/28 04:15:43;;;;;;;2.30;1.10;;;7.10;96.80;;;;;;4999210;28;20116;-72
2023/12/28 04:18:08;;;;;;;2.00;1.10;;;7.10;96.80;;;;;;5004283;28;20760;-73
2023/12/28 04:20:33;;;;;;;1.88;1.23;;;7.10;96.80;;;;;;5002066;28;20398;-72
2023/12/28 04:22:59;;;;;;;2.30;0.90;;;7.00;96.90;;;;;;4996328;28;20030;-72
2023/12/28 04:25:24;;;;;;;3.42;1.45;;;7.10;96.90;;;;;;4982491;28;20124;-73
2023/12/28 04:27:50;;;;;;;3.10;1.30;;;7.00;96.90;;;;;;5000121;28;20506;-72
2023/12/28 04:30:15;;;;;;;3.30;1.20;;;7.00;97.20;;;;;;5000175;28;20061;-72
2023/12/28 04:32:41;;;;;;;2.47;1.30;;;7.20;96.80;;;;;;5000439;28;20038;-73
2023/12/28 04:35:07;;;;;;;1.88;1.17;;;7.30;96.40;;;;;;4993602;28;20046;-72
2023/12/28 04:37:32;;;;;;;2.85;1.40;;;7.30;96.20;;;;;;4998439;28;20029;-72
2023/12/28 04:39:58;;;;;;;1.65;1.15;;;7.20;96.40;;;;;;4998596;28;20026;-72
2023/12/28 04:42:23;;;;;;;2.05;1.30;;;7.20;96.50;;;;;;5000225;28;20042;-72
2023/12/28 04:44:49;;;;;;;1.85;1.15;;;7.20;96.30;;;;;;4994386;28;20065;-72
2023/12/28 04:47:15;;;;;;;2.38;1.30;;;7.20;96.40;;;;;;4998996;28;20065;-72
2023/12/28 04:49:40;;;;;;;2.35;1.17;;;7.30;96.60;;;;;;4994357;28;20045;-72
2023/12/28 04:52:06;;;;;;;1.55;1.17;;;7.20;96.10;;;;;;5001523;28;20030;-72
2023/12/28 04:54:32;;;;;;;4.03;1.40;;;7.10;96.50;;;;;;4998489;28;20042;-71
2023/12/28 04:56:58;;;;;;;1.63;0.98;;;7.20;96.60;;;;;;4997002;28;20034;-72
2023/12/28 04:59:23;;;;;;;2.58;1.25;;;7.40;96.10;;;;;;4998437;28;20407;-72
2023/12/28 05:01:49;;;;;;;3.90;1.33;;;7.40;96.10;;;;;;4980431;28;20420;-72
2023/12/28 05:04:14;;;;;;;1.92;1.20;;;7.50;95.80;;;;;;5000957;28;20137;-72
2023/12/28 05:06:40;;;;;;;2.35;1.35;;;7.50;95.70;;;;;;4995029;28;20056;-72
2023/12/28 05:09:05;;;;;;;2.15;1.08;;;7.60;95.60;;;;;;5000700;28;20652;-72
2023/12/28 05:11:31;;;;;;;3.05;1.65;;;7.50;95.70;;;;;;4999804;28;20127;-72
2023/12/28 05:13:56;;;;;;;3.20;1.30;;;7.60;95.50;;;;;;4998580;28;20369;-72
2023/12/28 05:16:22;;;;;;;2.00;1.15;;;7.70;95.30;;;;;;4993540;28;20107;-72
2023/12/28 05:18:47;;;;;;;1.92;1.23;;;7.70;95.40;;;;;;4998071;28;20022;-72
2023/12/28 05:21:13;;;;;;;2.42;1.17;;;7.60;95.40;;;;;;5003193;28;20027;-72
2023/12/28 05:23:39;;;;;;;1.85;1.05;;;7.50;95.60;;;;;;5001788;28;20254;-72
2023/12/28 05:26:05;;;;;;;2.65;1.08;;;7.70;95.20;;;;;;5002113;28;20082;-71
2023/12/28 05:28:31;;;;;;;5.47;1.35;;;7.70;95.40;;;;;;5004426;28;20091;-72
2023/12/28 05:30:58;;;;;;;1.58;1.25;;;7.70;95.50;;;;;;4986950;28;20419;-72
2023/12/28 05:33:24;;;;;;;2.30;1.42;;;7.60;95.60;;;;;;5006609;28;20026;-72
2023/12/28 05:35:50;;;;;;;3.85;1.35;;;7.40;96.00;;;;;;5001267;28;20103;-72
2023/12/28 05:38:15;;;;;;;2.63;1.30;;;7.50;95.90;;;;;;5005645;28;20423;-72
2023/12/28 05:40:41;;;;;;;2.25;1.23;;;7.60;96.00;;;;;;5000176;28;20374;-72
2023/12/28 05:43:06;;;;;;;2.47;1.60;;;7.50;95.90;;;;;;5000156;28;20037;-72
2023/12/28 05:45:32;;;;;;;2.28;1.13;;;7.50;96.20;;;;;;4994746;28;20061;-72
2023/12/28 05:47:57;;;;;;;2.42;1.17;;;7.50;96.30;;;;;;5002631;28;20069;-72
2023/12/28 05:50:23;;;;;;;3.05;1.48;;;7.60;96.20;;;;;;4993102;28;20069;-72
2023/12/28 05:52:48;;;;;;;1.35;1.13;;;7.40;96.50;;;;;;4996533;28;20038;-71
2023/12/28 05:55:14;;;;;;;2.72;1.20;;;7.50;96.50;;;;;;5003156;28;20114;-72
2023/12/28 05:57:39;;;;;;;7.82;1.20;;;7.60;96.10;;;;;;5001411;28;20093;-72
2023/12/28 06:00:06;;;;;;;2.67;1.42;;;7.50;96.20;;;;;;5002745;28;20060;-72
2023/12/28 06:02:32;;;;;;;1.88;1.10;;;7.60;96.10;;;;;;4995741;28;20029;-72
2023/12/28 06:04:57;;;;;;;2.55;1.38;;;7.50;96.20;;;;;;5001664;28;20030;-72
2023/12/28 06:07:23;;;;;;;2.22;1.00;;;7.50;96.20;;;;;;4998803;28;20568;-72
2023/12/28 06:09:48;;;;;;;1.80;1.33;;;7.50;96.20;;;;;;4998177;28;20543;-72
2023/12/28 06:12:14;;;;;;;2.83;1.10;;;7.50;96.60;;;;;;4999039;28;20038;-72
2023/12/28 06:14:40;;;;;;;2.88;1.65;;;7.60;96.00;;;;;;4995320;28;20095;-72
2023/12/28 06:17:05;;;;;;;2.88;1.10;;;7.80;95.60;;;;;;4993266;28;20038;-71
2023/12/28 06:19:31;;;;;;;1.80;1.30;;;7.90;95.50;;;;;;5006779;28;20124;-71
2023/12/28 06:21:58;;;;;;;4.13;1.30;;;8.00;95.10;;;;;;5001901;28;20049;-72
2023/12/28 06:24:24;;;;;;;2.85;1.50;;;7.90;95.20;;;;;;4999042;28;20030;-72
2023/12/28 06:26:49;;;;;;;1.90;0.98;;;8.00;95.10;;;;;;4998135;28;20049;-71
2023/12/28 06:29:15;;;;;;;2.22;1.38;;;8.00;95.10;;;;;;4996571;28;20137;-71
2023/12/28 06:31:41;;;;;;;1.95;1.20;;;8.10;94.80;;;;;;4999131;28;20117;-71
2023/12/28 06:34:07;;;;;;;1.30;1.15;;;8.20;94.50;;;;;;4998777;28;20437;-71
2023/12/28 06:36:33;;;;;;;1.17;0.85;;;8.30;94.40;;;;;;4996860;28;20034;-73
2023/12/28 06:38:59;;;;;;;3.13;1.35;;;8.20;94.60;;;;;;4996980;28;20038;-73
2023/12/28 06:41:25;;;;;;;1.13;1.02;;;8.30;94.10;;;;;;4998366;28;20473;-71
2023/12/28 06:43:51;;;;;;;3.00;1.33;;;8.30;94.30;;;;;;4999285;28;20034;-73
2023/12/28 06:46:18;;;;;;;2.17;1.40;;;8.40;94.10;;;;;;4997169;28;20080;-76
2023/12/28 06:48:43;;;;;;;1.85;1.13;;;8.30;94.10;;;;;;5000803;28;20033;-74
2023/12/28 06:51:09;;;;;;;1.38;0.80;;;8.40;93.80;;;;;;4992309;28;20039;-73
2023/12/28 06:53:35;;;;;;;2.67;1.30;;;8.40;93.80;;;;;;5004495;28;20042;-75
2023/12/28 06:56:00;;;;;;;2.60;1.08;;;8.50;93.50;;;;;;4999895;28;20031;-72
2023/12/28 06:58:26;;;;;;;3.25;1.45;;;8.60;93.40;;;;;;4999376;28;20157;-72
2023/12/28 07:00:51;;;;;;;2.13;1.10;;;8.60;93.10;;;;;;4997663;28;20026;-73
2023/12/28 07:03:17;;;;;;;1.30;1.00;;;8.60;93.10;;;;;;5002778;28;20039;-74
2023/12/28 07:05:42;;;;;;;1.50;0.98;;;8.60;93.40;;;;;;5001448;28;20030;-73
2023/12/28 07:08:08;;;;;;;1.17;0.77;;;8.70;93.00;;;;;;4979329;28;20026;-74
2023/12/28 07:10:34;;;;;;;1.80;1.23;;;8.60;93.10;;;;;;5003719;28;20420;-75
2023/12/28 07:12:59;;;;;;;1.77;0.98;;;8.70;92.70;;;;;;4998937;28;20121;-74
2023/12/28 07:15:25;;;;;;;4.07;0.98;;;8.70;92.60;;;;;;4999503;28;20034;-74
2023/12/28 07:17:50;;;;;;;2.30;1.20;;;8.70;92.80;;;;;;4995896;28;20489;-74
2023/12/28 07:20:16;;;;;;;1.65;1.25;;;8.80;92.30;;;;;;4995514;28;20429;-74
2023/12/28 07:22:41;;;;;;;2.03;1.02;;;8.80;92.30;;;;;;4981000;28;20325;-75
2023/12/28 07:25:07;;;;;;;1.85;0.80;;;8.80;92.00;;;;;;4999825;28;20548;-76
2023/12/28 07:27:34;;;;;;;3.65;0.95;;;8.80;92.10;;;;;;4997036;28;20109;-75
2023/12/28 07:30:00;;;;;;;1.00;0.82;;;8.90;91.90;;;;;;4991788;28;20520;-74
2023/12/28 07:32:26;;;;;;;3.42;1.30;;;8.90;92.00;;;;;;4995334;28;20096;-73
2023/12/28 07:34:55;;;;;;;1.27;0.75;;;8.80;92.40;;;;;;5003714;28;20159;-72
2023/12/28 07:37:20;;;;;;;2.38;1.05;;;8.90;92.10;;;;;;4998683;28;20164;-71
2023/12/28 07:39:47;;;;;;;2.00;1.00;;;8.80;92.20;;;;;;5003802;28;20123;-73
2023/12/28 07:42:12;;;;;;;1.17;0.60;;;9.00;91.50;;;;;;5003723;28;20156;-72
2023/12/28 07:44:38;;;;;;;2.60;0.85;;;9.00;91.50;;;;;;5003132;28;20046;-72
2023/12/28 07:47:04;;;;;;;2.40;1.02;;;9.00;91.50;;;;;;5003790;28;20122;-72
2023/12/28 07:49:31;;;;;;;1.38;0.90;;;8.90;91.70;;;;;;5005985;28;20124;-71
2023/12/28 07:51:57;;;;;;;1.02;0.65;;;8.90;91.90;;;;;;5007390;28;20364;-71
2023/12/28 07:54:22;;;;;;;0.80;0.68;;;9.00;91.40;;;;;;4985588;28;20034;-70
2023/12/28 07:56:48;;;;;;;1.25;0.73;;;9.10;90.90;;;;;;5001627;28;20175;-71
2023/12/28 07:59:13;;;;;;;2.30;1.10;;;9.10;91.40;;;;;;4997675;28;20045;-72
2023/12/28 08:01:39;;;;;;;0.68;0.50;;;9.10;91.50;;;;;;4998872;28;20184;-71
2023/12/28 08:04:04;;;;;;;2.13;0.70;;;9.10;91.20;;;;;;5001973;28;20026;-72
2023/12/28 08:06:32;;;;;;;1.90;0.80;;;9.30;90.80;;;;;;5001173;28;20041;-73
2023/12/28 08:09:00;;;;;;;2.95;0.90;;;9.20;90.70;;;;;;4997477;28;20026;-71
2023/12/28 08:11:28;;;;;;;1.73;0.57;;;9.20;91.10;;;;;;4995483;28;20078;-72
2023/12/28 08:13:54;;;;;;;2.97;1.17;;;9.20;90.80;;;;;;5001244;28;20053;-72
2023/12/28 08:16:20;;;;;;;2.53;0.82;;;9.30;90.60;;;;;;5001457;28;20144;-72
2023/12/28 08:18:45;;;;;;;2.60;0.90;;;9.30;90.80;;;;;;4990944;28;20105;-73
2023/12/28 08:21:11;;;;;;;3.03;0.90;;;9.30;90.60;;;;;;5003729;28;20042;-72
2023/12/28 08:23:36;;;;;;;2.20;0.88;;;9.30;90.90;;;;;;5001830;28;20090;-71
2023/12/28 08:26:02;;;;;;;1.58;0.75;;;9.30;90.50;;;;;;5002128;28;20435;-75
2023/12/28 08:28:28;;;;;;;1.88;0.80;;;9.30;90.80;;;;;;4998055;28;20101;-74
2023/12/28 08:30:54;;;;;;;2.05;0.80;;;9.40;90.40;;;;;;5001354;28;20403;-72
2023/12/28 08:33:20;;;;;;;2.55;0.77;;;9.40;90.40;;;;;;5002600;28;20095;-73
2023/12/28 08:35:45;;;;;;;1.35;0.98;;;9.30;90.50;;;;;;5003266;28;20038;-72
2023/12/28 08:38:11;;;;;;;1.67;0.75;;;9.40;90.30;;;;;;5005736;28;20042;-72
2023/12/28 08:40:36;;;;;;;3.72;1.02;;;9.40;90.50;;;;;;5003788;28;20351;-72
2023/12/28 08:43:02;;;;;;;1.88;0.90;;;9.50;90.10;;;;;;5005847;28;20431;-71
2023/12/28 08:45:27;;;;;;;0.80;0.60;;;9.60;89.50;;;;;;4994677;28;20057;-71
2023/12/28 08:47:53;;;;;;;1.45;1.00;;;9.50;89.90;;;;;;5001538;28;20061;-71
2023/12/28 08:50:19;;;;;;;2.05;0.65;;;9.60;89.50;;;;;;4991227;28;20081;-70
2023/12/28 08:52:45;;;;;;;2.17;0.63;;;9.60;89.70;;;;;;4990672;28;20412;-71
2023/12/28 08:55:10;;;;;;;6.90;1.13;;;9.70;89.00;;;;;;4992257;28;20093;-70
2023/12/28 08:57:36;;;;;;;1.20;0.80;;;9.70;88.80;;;;;;4997527;28;20038;-73
2023/12/28 09:00:02;;;;;;;2.72;0.73;;;9.60;89.30;;;;;;4999730;28;20100;-69
2023/12/28 09:02:28;;;;;;;0.38;0.38;;;9.60;89.60;;;;;;4993179;28;20037;-69
2023/12/28 09:04:54;;;;;;;4.22;0.77;;;9.70;88.90;;;;;;4995076;28;20026;-68
2023/12/28 09:07:20;;;;;;;1.42;0.80;;;9.70;89.40;;;;;;4994586;28;20030;-68
2023/12/28 09:09:46;;;;;;;1.33;0.77;;;9.60;89.40;;;;;;5000686;28;20049;-68
2023/12/28 09:12:11;;;;;;;0.82;0.60;;;9.70;89.00;;;;;;4999204;28;20051;-68
2023/12/28 09:14:37;;;;;;;4.40;1.17;;;9.70;89.20;;;;;;4990346;28;20034;-68
2023/12/28 09:17:02;;;;;;;0.93;0.70;;;9.70;88.50;;;;;;4994941;28;20038;-68
2023/12/28 09:19:28;;;;;;;1.98;0.40;;;9.80;88.30;;;;;;4993366;28;20118;-68
2023/12/28 09:21:53;;;;;;;0.95;0.60;;;10.00;87.50;;;;;;4996334;28;20034;-68
2023/12/28 09:24:19;;;;;;;2.10;0.70;;;10.10;87.30;;;;;;4990665;28;20038;-70
2023/12/28 09:26:45;;;;;;;1.88;0.77;;;10.00;87.90;;;;;;4999389;28;20100;-70
2023/12/28 09:29:10;;;;;;;1.75;0.65;;;10.00;87.30;;;;;;4990654;28;20490;-70
2023/12/28 09:31:36;;;;;;;2.67;1.20;;;9.90;87.90;;;;;;4999360;28;20399;-71
2023/12/28 09:34:04;;;;;;;1.33;0.60;;;10.00;87.70;;;;;;5004213;28;20038;-70
2023/12/28 09:36:30;;;;;;;2.58;0.80;;;10.10;86.80;;;;;;5006851;28;20124;-71
2023/12/28 09:38:55;;;;;;;3.70;0.90;;;10.10;87.00;;;;;;5003312;28;20105;-71
2023/12/28 09:41:25;;;;;;;1.45;0.68;;;10.10;87.00;;;;;;5009888;28;20081;-71
2023/12/28 09:43:58;;;;;;;1.95;0.70;;;10.10;86.80;;;;;;5001168;28;20050;-73
2023/12/28 09:46:26;;;;;;;1.85;0.60;;;10.10;87.30;;;;;;5003678;28;20042;-72
2023/12/28 09:48:53;;;;;;;2.92;0.63;;;10.20;86.70;;;;;;5008879;28;20030;-72
2023/12/28 09:51:19;;;;;;;3.83;0.75;;;10.20;86.70;;;;;;5008983;28;20040;-72
2023/12/28 09:53:45;;;;;;;2.40;0.68;;;10.20;86.30;;;;;;4996719;28;20026;-73
2023/12/28 09:56:12;;;;;;;2.22;0.90;;;10.20;86.70;;;;;;5009817;28;20176;-72
2023/12/28 09:58:40;;;;;;;2.55;0.90;;;10.20;86.70;;;;;;4998757;28;20112;-72
2023/12/28 10:01:07;;;;;;;2.22;0.88;;;10.20;86.70;;;;;;5003490;28;20042;-72
2023/12/28 10:03:32;;;;;;;2.65;0.98;;;10.20;86.90;;;;;;5006538;28;20103;-74
2023/12/28 10:05:58;;;;;;;0.65;0.50;;;10.20;86.30;;;;;;4997441;28;20148;-70
2023/12/28 10:08:24;;;;;;;1.40;0.65;;;10.20;86.60;;;;;;5001710;28;20065;-70
2023/12/28 10:10:54;;;;;;;2.10;0.57;;;10.20;86.40;;;;;;5009455;28;20030;-75
2023/12/28 10:13:20;;;;;;;2.37;0.50;;;10.30;85.90;;;;;;4998418;28;20102;-77
2023/12/28 10:15:45;;;;;;;3.13;0.73;;;10.20;86.60;;;;;;5002239;28;20042;-69
2023/12/28 10:18:11;;;;;;;1.30;0.63;;;10.10;87.00;;;;;;5003117;28;20438;-70
2023/12/28 10:20:36;;;;;;;0.93;0.40;;;10.10;86.80;;;;;;5002743;28;20049;-69
2023/12/28 10:23:02;;;;;;;2.28;0.70;;;10.10;86.80;;;;;;5008288;28;20029;-69
2023/12/28 10:25:28;;;;;;;1.70;0.73;;;10.20;86.60;;;;;;5005513;28;20034;-69
2023/12/28 10:27:54;;;;;;;1.00;0.57;;;10.20;86.30;;;;;;5000942;28;20163;-70
2023/12/28 10:30:21;;;;;;;1.33;0.80;;;10.10;86.70;;;;;;4991678;28;20098;-70
2023/12/28 10:32:47;;;;;;;2.25;0.65;;;10.20;86.40;;;;;;4996619;28;20029;-72
2023/12/28 10:35:12;;;;;;;3.33;0.65;;;10.10;87.00;;;;;;5008817;28;20120;-71
2023/12/28 10:37:42;;;;;;;2.05;0.45;;;10.20;86.50;;;;;;5003794;28;20084;-70
2023/12/28 10:40:17;;;;;;;1.63;0.93;;;10.20;86.00;;;;;;4994028;28;20026;-72
2023/12/28 10:42:56;;;;;;;2.30;0.60;;;10.20;86.30;;;;;;5001264;28;20033;-70
2023/12/28 10:45:25;;;;;;;3.25;0.60;;;10.20;86.40;;;;;;4998914;28;20122;-68
2023/12/28 10:48:00;;;;;;;1.95;0.93;;;10.20;86.40;;;;;;4981383;28;20033;-67
2023/12/28 10:50:28;;;;;;;1.60;0.55;;;10.20;86.40;;;;;;4997338;28;20034;-68
2023/12/28 10:53:00;;;;;;;3.95;1.13;;;10.30;85.70;;;;;;5003224;28;20189;-68
2023/12/28 10:55:39;;;;;;;3.42;0.70;;;10.30;86.10;;;;;;5004204;28;20115;-69
2023/12/28 10:58:14;;;;;;;2.63;0.77;;;10.20;86.70;;;;;;5002337;28;20450;-68
2023/12/28 11:00:52;;;;;;;2.97;0.68;;;10.20;86.40;;;;;;4978813;28;20201;-69
2023/12/28 11:03:23;;;;;;;2.33;0.70;;;10.10;86.90;;;;;;5000273;28;20044;-68
2023/12/28 11:05:49;;;;;;;2.08;0.60;;;10.30;86.10;;;;;;4995118;28;20049;-69
2023/12/28 11:08:17;;;;;;;0.68;0.50;;;10.20;86.70;;;;;;5000581;28;20053;-69
2023/12/28 11:10:43;;;;;;;4.63;1.45;;;10.20;86.60;;;;;;4983372;28;20034;-73
2023/12/28 11:13:10;;;;;;;3.42;0.90;;;10.40;85.70;;;;;;4981168;28;20709;-72
2023/12/28 11:15:37;;;;;;;2.72;0.95;;;10.40;86.10;;;;;;4980639;28;20038;-73
2023/12/28 11:18:03;;;;;;;2.45;0.93;;;10.40;86.30;;;;;;4999230;28;20077;-73
2023/12/28 11:20:29;;;;;;;2.70;0.68;;;10.40;85.90;;;;;;5002591;28;20050;-71
2023/12/28 11:22:55;;;;;;;4.50;1.15;;;10.50;85.50;;;;;;4985768;28;20030;-73
2023/12/28 11:25:21;;;;;;;3.10;0.80;;;10.50;85.90;;;;;;4982999;28;20128;-72
2023/12/28 11:27:47;;;;;;;3.38;1.02;;;10.40;86.50;;;;;;4998819;28;20181;-71
2023/12/28 11:30:13;;;;;;;1.88;0.70;;;10.40;86.20;;;;;;4997862;28;20034;-71
2023/12/28 11:32:44;;;;;;;5.43;1.45;;;10.50;85.50;;;;;;5004294;28;20363;-73
2023/12/28 11:35:15;;;;;;;2.83;0.60;;;10.50;86.10;;;;;;5002344;28;20045;-72
2023/12/28 11:37:47;;;;;;;3.88;0.60;;;10.60;85.40;;;;;;5004720;28;20045;-71
2023/12/28 11:40:16;;;;;;;1.98;0.60;;;10.60;86.20;;;;;;5006443;28;20376;-72
2023/12/28 11:42:53;;;;;;;3.83;1.02;;;10.70;85.90;;;;;;5004553;28;20151;-71
2023/12/28 11:45:20;;;;;;;5.38;0.70;;;10.70;85.40;;;;;;5001032;28;20041;-71
2023/12/28 11:47:45;;;;;;;1.02;0.85;;;10.60;85.90;;;;;;5005869;28;20029;-72
2023/12/28 11:50:12;;;;;;;5.45;0.80;;;10.60;85.80;;;;;;5005472;28;20026;-72
2023/12/28 11:52:38;;;;;;;1.52;0.75;;;10.60;86.30;;;;;;4984102;28;20044;-71
2023/12/28 11:55:04;;;;;;;3.78;0.63;;;10.60;86.10;;;;;;5000222;28;20447;-71
2023/12/28 11:57:30;;;;;;;5.65;1.00;;;10.60;85.70;;;;;;4997648;28;20117;-72
2023/12/28 11:59:56;;;;;;;1.73;0.80;;;10.60;85.40;;;;;;5000903;28;20037;-72
2023/12/28 12:02:22;;;;;;;3.45;1.35;;;10.60;85.60;;;;;;4999880;28;20094;-72
2023/12/28 12:04:48;;;;;;;3.75;0.80;;;10.60;85.10;;;;;;4999144;28;20037;-71
2023/12/28 12:07:13;;;;;;;7.50;1.25;;;10.60;85.20;;;;;;5003198;28;20387;-71
2023/12/28 12:09:39;;;;;;;2.33;0.77;;;10.60;84.90;;;;;;4992547;28;20038;-71
2023/12/28 12:12:06;;;;;;;2.65;0.85;;;10.60;85.40;;;;;;4992034;28;20026;-71
2023/12/28 12:14:32;;;;;;;4.32;0.65;;;10.60;85.40;;;;;;4998510;28;20029;-71
2023/12/28 12:16:58;;;;;;;2.15;1.05;;;10.60;85.20;;;;;;4995713;28;20110;-72
2023/12/28 12:19:25;;;;;;;1.88;0.82;;;10.60;85.30;;;;;;4985343;28;20106;-71
2023/12/28 12:21:52;;;;;;;2.38;0.90;;;10.60;85.50;;;;;;5000089;28;20434;-69
2023/12/28 12:24:18;;;;;;;5.45;1.00;;;10.50;86.00;;;;;;4981917;28;20132;-70
2023/12/28 12:26:45;;;;;;;4.25;0.77;;;10.50;86.20;;;;;;4996481;28;20097;-70
2023/12/28 12:29:11;;;;;;;4.05;0.75;;;10.50;85.40;;;;;;4990656;28;20046;-69
2023/12/28 12:31:38;;;;;;;3.45;0.60;;;10.50;85.90;;;;;;5002235;28;20034;-73
2023/12/28 12:34:04;;;;;;;2.58;0.82;;;10.40;86.00;;;;;;5001270;28;20038;-71
2023/12/28 12:36:29;;;;;;;3.78;1.45;;;10.50;86.00;;;;;;5004879;28;20033;-70
2023/12/28 12:38:56;;;;;;;1.77;0.63;;;10.40;86.40;;;;;;5005740;28;20072;-73
2023/12/28 12:41:21;;;;;;;5.15;0.95;;;10.30;86.60;;;;;;4995813;28;20128;-73
2023/12/28 12:43:47;;;;;;;0.57;0.35;;;10.30;86.30;;;;;;4990334;28;20116;-72
2023/12/28 12:46:12;;;;;;;1.83;0.60;;;10.30;86.80;;;;;;5003137;28;20438;-73
2023/12/28 12:48:40;;;;;;;2.00;0.88;;;10.30;86.60;;;;;;5005620;28;20025;-73
2023/12/28 12:51:06;;;;;;;2.58;0.75;;;10.30;86.50;;;;;;4997472;28;20038;-68